Time;durP1;ratioP1;P1;durP2;ratioP2;P2;SDS_P1;SDS_P2;PMS_P1;PMS_P2;Temp;Humidity;BMP_temperature;BMP_pressure;BME280_temperature;BME280_humidity;BME280_pressure;Samples;Min_cycle;Max_cycle;Signal;HPM_P1;HPM_P2
2023/01/30 00:00:04;;;;;;;;;6.20;6.20;;;;;;;;5298437;27;8783;-67
2023/01/30 00:02:54;;;;;;;;;9.60;9.60;;;;;;;;5315932;27;8780;-66
2023/01/30 00:05:25;;;;;;;;;10.80;9.00;;;;;;;;5333629;27;8806;-66
2023/01/30 00:07:57;;;;;;;;;7.80;7.80;;;;;;;;5334118;27;9466;-66
2023/01/30 00:10:46;;;;;;;;;9.60;9.60;;;;;;;;5315372;27;8858;-66
2023/01/30 00:13:17;;;;;;;;;8.60;8.60;;;;;;;;5315290;27;8806;-66
2023/01/30 00:15:48;;;;;;;;;10.20;10.00;;;;;;;;5315323;27;8776;-66
2023/01/30 00:18:20;;;;;;;;;6.60;6.60;;;;;;;;5314714;27;8806;-66
2023/01/30 00:20:55;;;;;;;;;6.60;6.40;;;;;;;;5333888;27;8998;-68
2023/01/30 00:23:27;;;;;;;;;11.20;10.20;;;;;;;;5333335;27;8756;-69
2023/01/30 00:25:58;;;;;;;;;9.40;9.40;;;;;;;;5333539;27;8779;-69
2023/01/30 00:28:29;;;;;;;;;9.20;9.00;;;;;;;;5333241;27;8816;-69
2023/01/30 00:31:01;;;;;;;;;8.60;8.60;;;;;;;;5314417;27;8779;-69
2023/01/30 00:33:32;;;;;;;;;9.20;9.20;;;;;;;;5297578;27;9467;-69
2023/01/30 00:36:04;;;;;;;;;10.40;10.00;;;;;;;;5332667;27;8790;-69
2023/01/30 00:38:35;;;;;;;;;10.40;10.40;;;;;;;;5333501;27;8910;-68
2023/01/30 00:47:04;;;;;;;;;9.80;9.80;;;;;;;;5318138;27;8795;-68
2023/01/30 00:47:05;;;;;;;;;9.60;9.60;;;;;;;;5314451;27;8814;-68
2023/01/30 00:49:36;;;;;;;;;10.20;10.00;;;;;;;;5313935;27;8780;-68
2023/01/30 00:52:26;;;;;;;;;6.80;6.00;;;;;;;;5314338;27;8757;-68
2023/01/30 00:54:57;;;;;;;;;12.00;12.00;;;;;;;;5296413;27;8768;-68
2023/01/30 00:57:28;;;;;;;;;16.00;15.80;;;;;;;;5332831;27;8780;-68
2023/01/30 01:00:00;;;;;;;;;6.80;6.20;;;;;;;;5332260;27;8902;-67
2023/01/30 01:02:31;;;;;;;;;12.20;12.20;;;;;;;;5314265;27;8883;-68
2023/01/30 01:05:03;;;;;;;;;17.00;17.00;;;;;;;;5313620;27;8786;-68
2023/01/30 01:07:35;;;;;;;;;15.40;15.40;;;;;;;;5314040;27;8831;-68
2023/01/30 01:10:06;;;;;;;;;20.25;18.25;;;;;;;;5296751;27;8796;-67
2023/01/30 01:12:37;;;;;;;;;18.40;18.40;;;;;;;;5313614;27;11425;-67
2023/01/30 01:15:27;;;;;;;;;11.60;11.20;;;;;;;;5316641;27;8878;-67
2023/01/30 01:17:58;;;;;;;;;15.00;14.20;;;;;;;;5332071;27;8823;-66
2023/01/30 01:20:48;;;;;;;;;20.80;19.60;;;;;;;;5299082;27;8753;-67
2023/01/30 01:23:19;;;;;;;;;17.40;17.40;;;;;;;;5296020;27;8825;-68
2023/01/30 01:25:53;;;;;;;;;16.40;16.00;;;;;;;;5313833;27;8776;-67
2023/01/30 01:28:24;;;;;;;;;12.25;12.25;;;;;;;;5331440;27;8816;-66
2023/01/30 01:30:56;;;;;;;;;19.40;19.40;;;;;;;;5296395;27;10082;-66
2023/01/30 01:33:27;;;;;;;;;11.20;9.80;;;;;;;;5262699;27;8836;-67
2023/01/30 01:35:58;;;;;;;;;21.60;19.80;;;;;;;;5331795;27;8765;-67
2023/01/30 01:38:29;;;;;;;;;14.40;14.40;;;;;;;;5296066;27;8797;-67
2023/01/30 01:41:06;;;;;;;;;19.40;19.40;;;;;;;;5296145;27;8760;-67
2023/01/30 01:43:59;;;;;;;;;21.80;20.40;;;;;;;;5313196;27;8782;-68
2023/01/30 01:46:35;;;;;;;;;18.20;18.20;;;;;;;;5306243;27;8852;-67
2023/01/30 01:49:12;;;;;;;;;16.80;16.80;;;;;;;;5296372;27;8807;-67
2023/01/30 01:51:50;;;;;;;;;22.40;22.40;;;;;;;;5331548;27;8748;-67
2023/01/30 01:54:25;;;;;;;;;19.40;19.40;;;;;;;;5296085;27;8745;-67
2023/01/30 01:56:57;;;;;;;;;10.80;9.80;;;;;;;;5296103;27;8768;-67
2023/01/30 01:59:33;;;;;;;;;15.40;14.60;;;;;;;;5295813;27;8780;-67
2023/01/30 02:02:08;;;;;;;;;17.00;15.80;;;;;;;;5279221;27;8784;-67
2023/01/30 02:07:36;;;;;;;;;9.20;9.20;;;;;;;;5331878;27;8788;-66
2023/01/30 02:10:10;;;;;;;;;15.40;13.80;;;;;;;;5331836;27;8800;-66
2023/01/30 02:12:41;;;;;;;;;16.80;15.40;;;;;;;;5296618;27;8803;-67
2023/01/30 02:15:12;;;;;;;;;17.20;15.60;;;;;;;;5312604;27;8787;-67
2023/01/30 02:17:45;;;;;;;;;20.80;20.00;;;;;;;;5312942;27;8768;-66
2023/01/30 02:20:52;;;;;;;;;10.00;9.60;;;;;;;;5331779;27;8776;-66
2023/01/30 02:23:52;;;;;;;;;8.20;8.20;;;;;;;;5331722;27;8799;-66
2023/01/30 02:26:39;;;;;;;;;12.60;12.60;;;;;;;;5312287;27;8776;-68
2023/01/30 02:29:28;;;;;;;;;10.00;10.00;;;;;;;;5331069;27;8865;-68
2023/01/30 02:32:14;;;;;;;;;17.40;15.60;;;;;;;;5278437;27;8760;-68
2023/01/30 02:34:45;;;;;;;;;43.80;34.80;;;;;;;;5278893;27;8796;-68
2023/01/30 02:37:25;;;;;;;;;14.20;14.20;;;;;;;;5295551;27;8780;-68
2023/01/30 02:40:22;;;;;;;;;15.60;15.60;;;;;;;;5330700;27;8811;-68
2023/01/30 02:43:02;;;;;;;;;16.00;15.40;;;;;;;;5312345;27;8756;-68
2023/01/30 02:45:52;;;;;;;;;21.00;19.80;;;;;;;;5295591;27;8773;-68
2023/01/30 02:48:35;;;;;;;;;16.60;16.60;;;;;;;;5312148;27;8884;-67
2023/01/30 02:51:09;;;;;;;;;16.20;16.00;;;;;;;;5331216;27;8780;-67
2023/01/30 02:53:41;;;;;;;;;15.80;15.80;;;;;;;;5296720;27;8780;-69
2023/01/30 02:56:12;;;;;;;;;32.80;32.20;;;;;;;;5335848;27;8836;-68
2023/01/30 02:58:47;;;;;;;;;18.20;18.20;;;;;;;;5315085;27;8864;-68
2023/01/30 03:01:37;;;;;;;;;10.20;9.80;;;;;;;;5330805;27;8894;-67
2023/01/30 03:04:25;;;;;;;;;14.60;13.40;;;;;;;;5312390;27;8756;-68
2023/01/30 03:07:34;;;;;;;;;15.80;15.80;;;;;;;;5330468;27;8819;-67
2023/01/30 03:10:23;;;;;;;;;14.00;14.00;;;;;;;;5295110;27;8799;-68
2023/01/30 03:13:13;;;;;;;;;15.00;13.00;;;;;;;;5297996;27;8923;-67
2023/01/30 03:16:03;;;;;;;;;27.20;22.60;;;;;;;;5294987;27;8799;-68
2023/01/30 03:18:35;;;;;;;;;13.40;13.00;;;;;;;;5297335;27;8814;-68
2023/01/30 03:21:06;;;;;;;;;17.00;16.20;;;;;;;;5316709;27;8768;-68
2023/01/30 03:23:37;;;;;;;;;15.50;15.50;;;;;;;;5334519;27;8783;-68
2023/01/30 03:26:13;;;;;;;;;15.40;15.40;;;;;;;;5282040;27;11334;-68
2023/01/30 03:28:45;;;;;;;;;15.00;15.00;;;;;;;;5315809;27;8795;-68
2023/01/30 03:31:16;;;;;;;;;13.20;12.20;;;;;;;;5315857;27;8864;-68
2023/01/30 03:33:48;;;;;;;;;14.80;14.40;;;;;;;;5316117;27;8798;-67
2023/01/30 03:36:19;;;;;;;;;6.60;6.60;;;;;;;;5298956;27;8776;-67
2023/01/30 03:38:51;;;;;;;;;13.40;10.00;;;;;;;;5298491;27;8760;-67
2023/01/30 03:41:40;;;;;;;;;22.00;13.80;;;;;;;;5315393;27;8898;-67
2023/01/30 03:44:12;;;;;;;;;18.00;15.60;;;;;;;;5316223;27;8780;-66
2023/01/30 03:46:45;;;;;;;;;13.00;13.00;;;;;;;;5282260;27;8915;-67
2023/01/30 03:49:17;;;;;;;;;21.40;21.40;;;;;;;;5315361;27;8937;-67
2023/01/30 03:51:48;;;;;;;;;22.20;21.20;;;;;;;;5315521;27;9458;-67
2023/01/30 03:54:19;;;;;;;;;12.75;12.75;;;;;;;;5298576;27;8816;-67
2023/01/30 03:56:51;;;;;;;;;12.20;12.20;;;;;;;;5315774;27;8791;-67
2023/01/30 03:59:22;;;;;;;;;15.60;15.40;;;;;;;;5334397;27;8806;-66
2023/01/30 04:02:00;;;;;;;;;16.40;16.20;;;;;;;;5299814;27;8764;-67
2023/01/30 04:04:31;;;;;;;;;14.00;14.00;;;;;;;;5297925;27;8903;-66
2023/01/30 04:07:03;;;;;;;;;17.00;16.00;;;;;;;;5315252;27;8744;-66
2023/01/30 04:09:35;;;;;;;;;16.00;15.00;;;;;;;;5315396;27;9540;-67
2023/01/30 04:12:06;;;;;;;;;15.00;13.40;;;;;;;;5298343;27;8939;-67
2023/01/30 04:14:42;;;;;;;;;13.00;13.00;;;;;;;;5315505;27;8768;-66
2023/01/30 04:17:30;;;;;;;;;14.60;13.60;;;;;;;;5297873;27;8784;-67
2023/01/30 04:20:19;;;;;;;;;14.60;13.40;;;;;;;;5315181;27;9565;-68
2023/01/30 04:22:55;;;;;;;;;18.40;17.60;;;;;;;;5315078;27;8795;-68
2023/01/30 04:25:28;;;;;;;;;18.60;15.60;;;;;;;;5314778;27;8788;-69
2023/01/30 04:28:17;;;;;;;;;27.20;25.00;;;;;;;;5316847;27;9482;-69
2023/01/30 04:30:51;;;;;;;;;16.60;15.60;;;;;;;;5314039;27;8780;-68
2023/01/30 04:33:41;;;;;;;;;13.80;13.80;;;;;;;;5314697;27;8776;-68
2023/01/30 04:36:13;;;;;;;;;15.00;13.80;;;;;;;;5315299;27;8809;-67
2023/01/30 04:38:45;;;;;;;;;16.00;14.60;;;;;;;;5297447;27;9512;-69
2023/01/30 04:41:37;;;;;;;;;16.20;15.60;;;;;;;;5332779;27;8795;-69
2023/01/30 04:44:08;;;;;;;;;15.60;15.20;;;;;;;;5314833;27;8768;-69
2023/01/30 04:46:50;;;;;;;;;27.60;27.60;;;;;;;;5282044;27;9625;-68
2023/01/30 04:49:24;;;;;;;;;27.00;26.20;;;;;;;;5314264;27;8828;-68
2023/01/30 04:51:58;;;;;;;;;18.60;18.60;;;;;;;;5297366;27;8803;-69
2023/01/30 04:54:29;;;;;;;;;16.40;16.00;;;;;;;;5332687;27;8791;-68
2023/01/30 04:57:00;;;;;;;;;20.75;19.50;;;;;;;;5297667;27;9467;-67
2023/01/30 04:59:50;;;;;;;;;19.00;18.20;;;;;;;;5333404;27;8784;-67
2023/01/30 05:02:22;;;;;;;;;24.20;20.20;;;;;;;;5314409;27;8791;-67
2023/01/30 05:04:53;;;;;;;;;23.60;21.60;;;;;;;;5296728;27;8903;-65
2023/01/30 05:07:42;;;;;;;;;41.20;35.00;;;;;;;;5317307;27;9478;-66
2023/01/30 05:10:32;;;;;;;;;25.00;22.00;;;;;;;;5332381;27;8802;-66
2023/01/30 05:13:04;;;;;;;;;10.50;10.50;;;;;;;;5332678;27;8800;-62
2023/01/30 05:15:34;;;;;;;;;24.20;22.40;;;;;;;;5313646;27;10833;-64
2023/01/30 05:27:19;;;;;;;;;15.40;3.00;;;;;;;;5289838;28;9428;-66
2023/01/30 05:34:13;;;;;;;;;24.80;17.40;;;;;;;;5310043;27;9730;-64
2023/01/30 05:36:44;;;;;;;;;30.80;27.00;;;;;;;;5275718;27;8774;-64
2023/01/30 05:39:15;;;;;;;;;43.00;40.60;;;;;;;;5275225;27;8786;-66
2023/01/30 05:41:46;;;;;;;;;29.40;26.00;;;;;;;;5275291;27;8766;-66
2023/01/30 05:44:17;;;;;;;;;28.25;27.25;;;;;;;;5274364;28;8781;-67
2023/01/30 05:46:48;;;;;;;;;36.25;30.50;;;;;;;;5296021;27;11038;-67
2023/01/30 05:49:46;;;;;;;;;22.60;19.40;;;;;;;;5308971;27;8852;-67
2023/01/30 05:56:32;;;;;;;;;77.20;62.20;;;;;;;;5331366;27;8764;-66
2023/01/30 06:08:07;;;;;;;;;19.80;19.20;;;;;;;;5310436;27;8766;-66
2023/01/30 06:10:38;;;;;;;;;29.00;26.25;;;;;;;;5310004;27;8778;-65
2023/01/30 06:13:10;;;;;;;;;42.00;40.25;;;;;;;;5309878;27;10981;-66
2023/01/30 06:15:41;;;;;;;;;30.00;30.00;;;;;;;;5291749;27;8775;-66
2023/01/30 06:18:12;;;;;;;;;31.25;29.75;;;;;;;;5291389;27;8805;-66
2023/01/30 06:20:47;;;;;;;;;40.60;37.60;;;;;;;;5292232;27;8818;-67
2023/01/30 06:23:19;;;;;;;;;21.80;21.40;;;;;;;;5292601;27;8782;-68
2023/01/30 06:25:51;;;;;;;;;30.40;30.40;;;;;;;;5309925;27;9512;-67
2023/01/30 06:28:22;;;;;;;;;33.40;30.00;;;;;;;;5291751;27;9526;-67
2023/01/30 06:31:12;;;;;;;;;30.40;27.00;;;;;;;;5294872;27;8782;-67
2023/01/30 06:34:01;;;;;;;;;22.80;22.40;;;;;;;;5292431;27;8774;-67
2023/01/30 06:36:32;;;;;;;;;30.60;30.40;;;;;;;;5291214;27;9510;-66
2023/01/30 06:39:03;;;;;;;;;36.25;30.50;;;;;;;;5291302;27;8774;-67
2023/01/30 06:41:34;;;;;;;;;41.00;35.20;;;;;;;;5308211;27;8778;-68
2023/01/30 06:44:05;;;;;;;;;27.50;27.00;;;;;;;;5291403;27;8790;-68
2023/01/30 06:46:38;;;;;;;;;28.00;27.00;;;;;;;;5273926;27;10343;-68
2023/01/30 06:49:09;;;;;;;;;38.20;37.00;;;;;;;;5308933;27;11638;-67
2023/01/30 06:51:59;;;;;;;;;33.40;31.00;;;;;;;;5291907;27;8786;-67
2023/01/30 06:54:30;;;;;;;;;33.40;29.20;;;;;;;;5314060;27;8854;-68
2023/01/30 06:57:01;;;;;;;;;38.25;36.00;;;;;;;;5295569;27;8770;-68
2023/01/30 06:59:32;;;;;;;;;28.50;28.50;;;;;;;;5295302;27;11468;-68
2023/01/30 07:02:03;;;;;;;;;51.20;44.00;;;;;;;;5295137;27;11574;-66
2023/01/30 07:04:53;;;;;;;;;36.20;33.60;;;;;;;;5294853;27;8901;-66
2023/01/30 07:07:24;;;;;;;;;28.00;26.60;;;;;;;;5313663;27;8794;-68
2023/01/30 07:09:55;;;;;;;;;44.80;36.20;;;;;;;;5313133;27;8778;-68
2023/01/30 07:12:26;;;;;;;;;32.40;31.00;;;;;;;;5294849;27;8774;-66
2023/01/30 07:14:57;;;;;;;;;26.20;26.20;;;;;;;;5312721;27;9486;-66
2023/01/30 07:17:28;;;;;;;;;37.00;36.25;;;;;;;;5294689;27;8774;-66
2023/01/30 07:20:24;;;;;;;;;33.75;29.50;;;;;;;;5310647;27;10493;-67
2023/01/30 07:23:14;;;;;;;;;32.20;29.00;;;;;;;;5291639;28;11513;-67
2023/01/30 07:25:45;;;;;;;;;42.00;38.20;;;;;;;;5273340;28;9673;-68
2023/01/30 07:28:15;;;;;;;;;29.00;27.50;;;;;;;;5273247;28;8804;-67
2023/01/30 07:30:51;;;;;;;;;38.20;36.60;;;;;;;;5273159;28;12060;-67
2023/01/30 07:33:22;;;;;;;;;24.60;23.60;;;;;;;;5256563;28;9448;-66
2023/01/30 07:35:54;;;;;;;;;30.60;29.20;;;;;;;;5273243;28;8764;-66
2023/01/30 07:38:24;;;;;;;;;30.60;30.00;;;;;;;;5273108;28;8772;-66
2023/01/30 07:41:14;;;;;;;;;32.00;29.20;;;;;;;;5291349;28;8765;-66
2023/01/30 07:43:45;;;;;;;;;26.50;26.50;;;;;;;;5273304;28;8799;-66
2023/01/30 07:46:15;;;;;;;;;58.80;51.60;;;;;;;;5256075;28;11548;-66
2023/01/30 07:49:05;;;;;;;;;59.80;51.20;;;;;;;;5275509;28;8788;-67
2023/01/30 07:51:36;;;;;;;;;34.00;32.20;;;;;;;;5291513;28;8823;-66
2023/01/30 07:54:25;;;;;;;;;21.00;20.60;;;;;;;;5276190;28;9436;-67
2023/01/30 07:56:56;;;;;;;;;17.75;16.25;;;;;;;;5273207;28;8768;-66
2023/01/30 07:59:27;;;;;;;;;17.40;17.40;;;;;;;;5272349;28;9946;-66
2023/01/30 08:05:57;;;;;;;;;16.40;16.00;;;;;;;;5312323;27;11530;-66
2023/01/30 08:12:52;;;;;;;;;33.40;31.40;;;;;;;;5312671;27;9164;-66
2023/01/30 08:15:23;;;;;;;;;32.20;31.60;;;;;;;;5294008;27;8786;-66
2023/01/30 08:17:55;;;;;;;;;34.25;31.75;;;;;;;;5311848;27;8785;-66
2023/01/30 08:20:26;;;;;;;;;26.20;24.20;;;;;;;;5277880;27;10781;-67
2023/01/30 08:22:58;;;;;;;;;46.80;44.60;;;;;;;;5315352;27;8768;-66
2023/01/30 08:25:29;;;;;;;;;41.00;39.80;;;;;;;;5314665;27;9498;-66
2023/01/30 08:28:00;;;;;;;;;32.00;31.40;;;;;;;;5297430;27;8818;-65
2023/01/30 08:30:31;;;;;;;;;41.80;38.40;;;;;;;;5333518;27;8783;-66
2023/01/30 08:33:21;;;;;;;;;48.20;43.60;;;;;;;;5333119;27;8764;-66
2023/01/30 08:35:52;;;;;;;;;36.60;35.40;;;;;;;;5332852;27;8779;-67
2023/01/30 08:38:23;;;;;;;;;47.25;46.00;;;;;;;;5313972;27;9455;-66
2023/01/30 08:40:55;;;;;;;;;58.20;52.00;;;;;;;;5333324;27;8843;-66
2023/01/30 08:43:27;;;;;;;;;48.40;47.00;;;;;;;;5314175;27;8772;-67
2023/01/30 08:45:57;;;;;;;;;44.40;43.60;;;;;;;;5314628;27;9477;-67
2023/01/30 08:48:29;;;;;;;;;46.50;44.75;;;;;;;;5334044;27;8808;-67
2023/01/30 08:50:59;;;;;;;;;38.80;37.80;;;;;;;;5336071;27;11572;-67
2023/01/30 08:53:30;;;;;;;;;34.75;33.50;;;;;;;;5316462;27;8906;-67
2023/01/30 08:56:01;;;;;;;;;41.75;39.00;;;;;;;;5334155;27;8802;-67
2023/01/30 08:58:32;;;;;;;;;45.25;40.25;;;;;;;;5315135;27;8791;-67
2023/01/30 09:01:06;;;;;;;;;32.25;31.25;;;;;;;;5280316;27;12122;-67
2023/01/30 09:03:37;;;;;;;;;40.20;40.00;;;;;;;;5314162;27;8878;-66
2023/01/30 09:06:08;;;;;;;;;42.00;42.00;;;;;;;;5314143;27;8778;-66
2023/01/30 09:08:39;;;;;;;;;51.50;48.50;;;;;;;;5314466;27;8792;-66
2023/01/30 09:11:11;;;;;;;;;48.50;46.75;;;;;;;;5313491;27;11418;-66
2023/01/30 09:13:43;;;;;;;;;44.20;43.00;;;;;;;;5313785;27;12111;-66
2023/01/30 09:16:14;;;;;;;;;59.20;50.20;;;;;;;;5313182;27;8764;-65
2023/01/30 09:18:45;;;;;;;;;47.50;42.75;;;;;;;;5313735;27;8792;-66
2023/01/30 09:21:35;;;;;;;;;96.60;76.20;;;;;;;;5331897;27;8784;-66
2023/01/30 09:24:05;;;;;;;;;50.25;47.50;;;;;;;;5332604;27;8776;-67
2023/01/30 09:26:36;;;;;;;;;33.25;33.25;;;;;;;;5313630;27;10917;-67
2023/01/30 09:29:07;;;;;;;;;32.00;30.50;;;;;;;;5313149;27;8808;-67
2023/01/30 09:31:57;;;;;;;;;37.00;32.20;;;;;;;;5331687;27;8784;-66
2023/01/30 09:34:28;;;;;;;;;33.60;33.20;;;;;;;;5295821;27;8788;-68
2023/01/30 09:37:17;;;;;;;;;28.80;28.80;;;;;;;;5313117;27;8784;-67
2023/01/30 09:40:12;;;;;;;;;55.40;50.80;;;;;;;;5332115;27;8802;-67
2023/01/30 09:42:57;;;;;;;;;60.60;51.20;;;;;;;;5313114;27;8821;-67
2023/01/30 09:45:28;;;;;;;;;34.60;34.00;;;;;;;;5312982;27;8768;-68
2023/01/30 09:48:12;;;;;;;;;30.75;30.75;;;;;;;;5296281;27;8780;-67
2023/01/30 09:50:52;;;;;;;;;34.00;33.60;;;;;;;;5313557;27;11454;-67
2023/01/30 09:53:41;;;;;;;;;66.00;54.40;;;;;;;;5296428;27;8756;-67
2023/01/30 09:56:30;;;;;;;;;38.60;38.00;;;;;;;;5298416;27;8783;-67
2023/01/30 09:59:03;;;;;;;;;46.25;44.50;;;;;;;;5296158;27;8788;-67
2023/01/30 10:02:13;;;;;;;;;30.60;29.60;;;;;;;;5313166;27;8879;-66
2023/01/30 10:04:46;;;;;;;;;28.20;26.00;;;;;;;;5206579;28;8791;-67
2023/01/30 10:07:36;;;;;;;;;20.80;20.00;;;;;;;;5223072;28;8783;-67
2023/01/30 10:10:13;;;;;;;;;28.00;26.20;;;;;;;;5280153;27;8772;-68
2023/01/30 10:13:03;;;;;;;;;28.60;25.40;;;;;;;;5312806;27;8780;-68
2023/01/30 10:15:41;;;;;;;;;41.60;41.00;;;;;;;;5331738;27;9372;-68
2023/01/30 10:18:34;;;;;;;;;25.00;23.40;;;;;;;;5295532;27;8878;-67
2023/01/30 10:21:15;;;;;;;;;38.80;36.60;;;;;;;;5277904;27;8784;-66
2023/01/30 10:24:22;;;;;;;;;51.80;46.80;;;;;;;;5314595;27;8776;-67
2023/01/30 10:26:53;;;;;;;;;74.40;57.20;;;;;;;;5310317;27;8887;-67
2023/01/30 10:29:30;;;;;;;;;85.25;70.25;;;;;;;;5277795;27;8804;-66
2023/01/30 10:32:25;;;;;;;;;52.00;46.40;;;;;;;;5311723;27;8760;-66
2023/01/30 10:34:59;;;;;;;;;42.00;40.20;;;;;;;;5330614;27;8857;-66
2023/01/30 10:37:32;;;;;;;;;45.80;43.40;;;;;;;;5311654;27;8784;-66
2023/01/30 10:40:03;;;;;;;;;42.20;42.00;;;;;;;;5311595;27;8892;-68
2023/01/30 10:42:48;;;;;;;;;48.25;46.00;;;;;;;;5277399;27;8752;-68
2023/01/30 10:45:21;;;;;;;;;40.60;37.20;;;;;;;;5294694;27;9487;-67
2023/01/30 10:48:01;;;;;;;;;30.60;30.60;;;;;;;;5311197;27;8811;-67
2023/01/30 10:50:58;;;;;;;;;22.00;21.40;;;;;;;;5329980;27;8813;-66
2023/01/30 10:53:45;;;;;;;;;24.00;23.00;;;;;;;;5329743;27;8829;-66
2023/01/30 10:56:24;;;;;;;;;26.80;24.20;;;;;;;;5329924;27;8783;-67
2023/01/30 10:58:55;;;;;;;;;16.60;16.60;;;;;;;;5294198;27;8768;-67
2023/01/30 11:01:55;;;;;;;;;28.80;27.40;;;;;;;;5294650;27;8784;-68
2023/01/30 11:04:35;;;;;;;;;17.20;17.20;;;;;;;;5221958;27;8784;-68
2023/01/30 11:07:07;;;;;;;;;29.60;28.80;;;;;;;;5294151;27;8788;-69
2023/01/30 11:09:43;;;;;;;;;21.80;21.20;;;;;;;;5294432;27;8788;-68
2023/01/30 11:12:37;;;;;;;;;27.80;27.20;;;;;;;;5314254;27;8788;-67
2023/01/30 11:15:43;;;;;;;;;26.20;26.20;;;;;;;;5314487;27;8908;-68
2023/01/30 11:18:15;;;;;;;;;19.40;19.00;;;;;;;;5329631;27;8780;-67
2023/01/30 11:20:54;;;;;;;;;27.00;25.00;;;;;;;;5232286;27;1739101;-67
2023/01/30 11:23:31;;;;;;;;;29.20;27.80;;;;;;;;5295835;27;8976;-67
2023/01/30 11:26:03;;;;;;;;;27.00;27.00;;;;;;;;5295586;27;8779;-67
2023/01/30 11:28:38;;;;;;;;;17.80;17.80;;;;;;;;5278548;27;8808;-67
2023/01/30 11:31:17;;;;;;;;;32.60;32.20;;;;;;;;5295320;27;8907;-67
2023/01/30 11:33:58;;;;;;;;;21.80;20.40;;;;;;;;5312632;27;8776;-67
2023/01/30 11:36:33;;;;;;;;;17.20;13.80;;;;;;;;5312187;27;8779;-67
2023/01/30 11:39:11;;;;;;;;;21.20;20.20;;;;;;;;5297078;27;8753;-67
2023/01/30 11:41:57;;;;;;;;;28.80;26.20;;;;;;;;5299189;27;8798;-67
2023/01/30 11:44:29;;;;;;;;;11.20;11.20;;;;;;;;5298913;27;8764;-67
2023/01/30 11:47:22;;;;;;;;;15.00;15.00;;;;;;;;5318912;27;8760;-67
2023/01/30 11:49:55;;;;;;;;;32.20;30.80;;;;;;;;5316319;27;8779;-68
2023/01/30 11:52:29;;;;;;;;;25.20;24.40;;;;;;;;5315896;27;8818;-68
2023/01/30 11:55:05;;;;;;;;;70.80;58.40;;;;;;;;5298786;27;8779;-68
2023/01/30 11:57:45;;;;;;;;;28.20;28.20;;;;;;;;5282236;27;8796;-67
2023/01/30 12:00:22;;;;;;;;;28.40;27.80;;;;;;;;5298700;27;8784;-67
2023/01/30 12:02:55;;;;;;;;;39.40;35.20;;;;;;;;5299192;27;8771;-67
2023/01/30 12:05:29;;;;;;;;;33.40;33.00;;;;;;;;5281173;27;8768;-67
2023/01/30 12:08:19;;;;;;;;;36.40;36.40;;;;;;;;5333920;27;8776;-67
2023/01/30 12:10:53;;;;;;;;;60.40;53.20;;;;;;;;5298651;27;9454;-67
2023/01/30 12:13:31;;;;;;;;;62.80;49.00;;;;;;;;5280994;27;8789;-67
2023/01/30 12:16:22;;;;;;;;;52.60;47.60;;;;;;;;5281527;27;9440;-67
2023/01/30 12:18:52;;;;;;;;;55.80;50.20;;;;;;;;5281272;27;8776;-68
2023/01/30 12:21:38;;;;;;;;;59.50;49.00;;;;;;;;5297467;27;9548;-68
2023/01/30 12:24:15;;;;;;;;;56.20;49.60;;;;;;;;5298383;27;8780;-67
2023/01/30 12:26:48;;;;;;;;;73.60;61.80;;;;;;;;5297920;27;8772;-67
2023/01/30 12:29:19;;;;;;;;;44.80;43.40;;;;;;;;5297335;27;8873;-67
2023/01/30 12:32:01;;;;;;;;;35.00;33.75;;;;;;;;5314661;27;8772;-67
2023/01/30 12:34:50;;;;;;;;;31.40;29.40;;;;;;;;5300764;27;8780;-66
2023/01/30 12:37:29;;;;;;;;;12.00;12.00;;;;;;;;5332744;27;9478;-66
2023/01/30 12:40:03;;;;;;;;;40.80;39.60;;;;;;;;5333487;27;9472;-66
2023/01/30 12:42:37;;;;;;;;;49.80;47.60;;;;;;;;5314975;27;8832;-67
2023/01/30 12:45:14;;;;;;;;;44.20;43.20;;;;;;;;5296894;27;8768;-66
2023/01/30 12:47:50;;;;;;;;;33.20;30.60;;;;;;;;5315382;27;8833;-68
2023/01/30 12:50:21;;;;;;;;;18.80;18.80;;;;;;;;5313426;27;8752;-67
2023/01/30 12:52:58;;;;;;;;;21.00;21.00;;;;;;;;5332588;27;8840;-66
2023/01/30 12:55:32;;;;;;;;;21.80;19.00;;;;;;;;5280303;27;8768;-67
2023/01/30 12:58:03;;;;;;;;;29.00;26.60;;;;;;;;5314000;27;8760;-67
2023/01/30 13:00:40;;;;;;;;;28.50;28.50;;;;;;;;5332448;27;8745;-67
2023/01/30 13:03:29;;;;;;;;;26.00;26.00;;;;;;;;5332579;27;8899;-67
2023/01/30 13:06:18;;;;;;;;;27.50;26.50;;;;;;;;5315092;27;8963;-66
2023/01/30 13:08:57;;;;;;;;;34.20;34.00;;;;;;;;5296849;27;11590;-66
2023/01/30 13:11:46;;;;;;;;;68.80;57.40;;;;;;;;5332478;27;8792;-67
2023/01/30 13:14:16;;;;;;;;;36.00;34.00;;;;;;;;5332867;27;8814;-67
2023/01/30 13:16:56;;;;;;;;;25.75;25.75;;;;;;;;5279532;27;8768;-67
2023/01/30 13:19:53;;;;;;;;;26.20;25.80;;;;;;;;5296903;27;8791;-67
2023/01/30 13:22:29;;;;;;;;;48.60;43.60;;;;;;;;5262112;27;9597;-66
2023/01/30 13:25:21;;;;;;;;;38.20;36.40;;;;;;;;5310210;27;8766;-66
2023/01/30 13:27:58;;;;;;;;;18.00;18.00;;;;;;;;5311125;27;8882;-67
2023/01/30 13:30:30;;;;;;;;;21.00;19.80;;;;;;;;5309152;27;8790;-67
2023/01/30 13:33:05;;;;;;;;;26.20;26.00;;;;;;;;5310717;27;9445;-67
2023/01/30 13:35:44;;;;;;;;;42.60;40.80;;;;;;;;5292433;27;8806;-68
2023/01/30 13:38:25;;;;;;;;;34.80;33.20;;;;;;;;5309953;27;8790;-68
2023/01/30 13:41:01;;;;;;;;;37.80;34.80;;;;;;;;5291846;27;8826;-68
2023/01/30 13:43:37;;;;;;;;;28.00;28.00;;;;;;;;5309800;27;8794;-67
2023/01/30 13:46:10;;;;;;;;;39.00;37.20;;;;;;;;5258694;27;8790;-67
2023/01/30 13:49:02;;;;;;;;;32.40;30.80;;;;;;;;5291679;27;8825;-69
2023/01/30 13:51:42;;;;;;;;;21.40;21.00;;;;;;;;5207753;28;8775;-68
2023/01/30 13:54:19;;;;;;;;;27.20;27.20;;;;;;;;5269409;27;8790;-66
2023/01/30 14:01:15;;;;;;;;;36.20;35.60;;;;;;;;5309576;27;8801;-67
2023/01/30 14:03:46;;;;;;;;;21.25;21.00;;;;;;;;5291467;27;8901;-67
2023/01/30 14:06:28;;;;;;;;;35.50;34.00;;;;;;;;5274371;27;10738;-68
2023/01/30 14:09:18;;;;;;;;;38.20;32.80;;;;;;;;5292310;27;11474;-68
2023/01/30 14:11:56;;;;;;;;;31.20;27.20;;;;;;;;5291314;27;8778;-66
2023/01/30 14:15:04;;;;;;;;;34.80;30.40;;;;;;;;5276979;27;8781;-66
2023/01/30 14:17:35;;;;;;;;;34.60;33.40;;;;;;;;5291777;27;8754;-66
2023/01/30 14:20:25;;;;;;;;;18.00;17.50;;;;;;;;5274444;27;8794;-64
2023/01/30 14:22:58;;;;;;;;;44.80;40.80;;;;;;;;5309696;27;12190;-66
2023/01/30 14:25:28;;;;;;;;;52.40;46.00;;;;;;;;5290993;27;8793;-68
2023/01/30 14:28:17;;;;;;;;;54.00;48.80;;;;;;;;5310070;27;8793;-66
2023/01/30 14:30:50;;;;;;;;;34.50;33.50;;;;;;;;5274044;27;9502;-66
2023/01/30 14:33:49;;;;;;;;;30.40;25.80;;;;;;;;5290761;27;12073;-68
2023/01/30 14:36:20;;;;;;;;;53.80;46.20;;;;;;;;5291233;27;8769;-68
2023/01/30 14:39:28;;;;;;;;;45.60;44.80;;;;;;;;5277037;27;8762;-67
2023/01/30 14:42:21;;;;;;;;;47.80;42.20;;;;;;;;5291549;27;8766;-67
2023/01/30 14:45:00;;;;;;;;;47.00;45.00;;;;;;;;5275851;27;8758;-66
2023/01/30 14:48:10;;;;;;;;;51.00;45.40;;;;;;;;5296142;27;8806;-69
2023/01/30 14:50:40;;;;;;;;;53.40;48.00;;;;;;;;5311972;27;8778;-66
2023/01/30 14:53:12;;;;;;;;;55.50;50.25;;;;;;;;5309232;27;8797;-67
2023/01/30 14:55:43;;;;;;;;;114.00;91.00;;;;;;;;5290615;27;11463;-67
2023/01/30 14:58:32;;;;;;;;;67.40;57.00;;;;;;;;5309596;27;8762;-67
2023/01/30 15:01:03;;;;;;;;;92.00;63.33;;;;;;;;5290844;27;8770;-66
2023/01/30 15:03:39;;;;;;;;;55.20;49.80;;;;;;;;5309131;27;8770;-66
2023/01/30 15:06:33;;;;;;;;;72.80;58.00;;;;;;;;5290849;27;8770;-66
2023/01/30 15:09:06;;;;;;;;;72.80;60.40;;;;;;;;5309334;27;8794;-66
2023/01/30 15:12:18;;;;;;;;;63.00;53.60;;;;;;;;5290617;27;8813;-67
2023/01/30 15:14:57;;;;;;;;;81.75;68.00;;;;;;;;5265809;27;8778;-67
2023/01/30 15:17:40;;;;;;;;;65.40;57.20;;;;;;;;5314176;27;9485;-66
2023/01/30 15:20:34;;;;;;;;;79.60;65.00;;;;;;;;5313057;27;8770;-65
2023/01/30 15:23:14;;;;;;;;;76.60;60.60;;;;;;;;5266889;27;8813;-68
2023/01/30 15:25:59;;;;;;;;;60.80;50.40;;;;;;;;5313485;27;8767;-67
2023/01/30 15:28:40;;;;;;;;;74.60;60.00;;;;;;;;5294718;27;8822;-69
2023/01/30 15:31:29;;;;;;;;;47.80;45.40;;;;;;;;5312856;27;8786;-65
2023/01/30 15:34:00;;;;;;;;;62.80;50.40;;;;;;;;5294959;27;8794;-67
2023/01/30 15:36:33;;;;;;;;;59.00;49.50;;;;;;;;5294352;27;8901;-67
2023/01/30 15:39:24;;;;;;;;;60.20;52.00;;;;;;;;5277170;27;11549;-68
2023/01/30 15:42:00;;;;;;;;;80.40;66.00;;;;;;;;5259670;27;8874;-67
2023/01/30 15:44:47;;;;;;;;;54.60;48.60;;;;;;;;5295043;27;9520;-67
2023/01/30 15:47:19;;;;;;;;;44.80;43.20;;;;;;;;5277646;27;8766;-68
2023/01/30 15:49:59;;;;;;;;;16.40;16.40;;;;;;;;5294331;27;8846;-68
2023/01/30 16:01:33;;;;;;;;;30.80;28.20;;;;;;;;5312291;27;8699;-68
2023/01/30 16:04:06;;;;;;;;;18.00;18.00;;;;;;;;5294206;27;8778;-68
2023/01/30 16:09:38;;;;;;;;;26.60;25.80;;;;;;;;5294046;27;8821;-67
2023/01/30 16:12:25;;;;;;;;;31.20;30.20;;;;;;;;5294148;27;8813;-67
2023/01/30 16:14:57;;;;;;;;;41.00;37.60;;;;;;;;5293600;27;8808;-66
2023/01/30 16:17:30;;;;;;;;;44.20;33.00;;;;;;;;5276382;27;8766;-68
2023/01/30 16:24:37;;;;;;;;;33.80;30.00;;;;;;;;5311656;27;8788;-69
2023/01/30 16:27:15;;;;;;;;;32.60;32.20;;;;;;;;5293476;27;8756;-68
2023/01/30 16:29:51;;;;;;;;;29.80;29.20;;;;;;;;5311826;27;8800;-68
2023/01/30 16:32:25;;;;;;;;;34.40;32.80;;;;;;;;5312760;27;8768;-68
2023/01/30 16:35:19;;;;;;;;;33.20;30.20;;;;;;;;5311327;27;8768;-67